Dupont, Indiana
Current Conditions -  °F | °C
As of 1:53 PM on Thursday 27 Nov 2014 (Local Time) from KLOU Reporting Station
Overcast Overcast  
Wind Chill: 25°   Ceiling: 2700
Heat Index: 34°   Visibility: 10mi
Dew Point: 23°   Wind: 12mph
Humidity: 64%   Direction: 280°W
Pressure: 30.36"   Gusts: NA
Location:  38.89°N, 85.51°W
Report Text: KLOU 271853Z 28010KT 10SM OVC027 01/M05 A3036 RMK AO2 SLP285 T00111050
Loading
Personal Weather Stations






























Interactive Weather Map New forecast layout! Learn more

10-Day Weather Forecast

Advertisements
Track Severe Weather on mobile